createdAt,value
2018-08-22T00:01:21.190Z,1.10
2018-08-22T00:03:49.545Z,1.17
2018-08-22T00:06:17.782Z,1.20
2018-08-22T00:08:46.205Z,1.17
2018-08-22T00:11:14.625Z,1.20
2018-08-22T00:13:43.812Z,1.40
2018-08-22T00:16:12.067Z,1.10
2018-08-22T00:18:40.336Z,1.30
2018-08-22T00:21:08.584Z,1.30
2018-08-22T00:23:36.815Z,1.30
2018-08-22T00:26:05.186Z,1.17
2018-08-22T00:28:33.448Z,1.30
2018-08-22T00:31:01.777Z,1.47
2018-08-22T00:33:30.026Z,1.30
2018-08-22T00:35:58.248Z,1.50
2018-08-22T00:38:26.539Z,1.33
2018-08-22T00:40:54.795Z,1.47
2018-08-22T00:43:23.058Z,1.40
2018-08-22T00:45:51.329Z,1.47
2018-08-22T00:48:19.580Z,1.50
2018-08-22T00:50:47.787Z,1.07
2018-08-22T00:53:16.047Z,1.37
2018-08-22T00:55:44.335Z,1.40
2018-08-22T00:58:12.538Z,1.30
2018-08-22T01:00:40.806Z,1.00
2018-08-22T01:03:09.126Z,1.20
2018-08-22T01:05:37.388Z,1.23
2018-08-22T01:08:05.623Z,1.10
2018-08-22T01:10:33.850Z,1.50
2018-08-22T01:13:02.100Z,1.00
2018-08-22T01:15:30.328Z,1.30
2018-08-22T01:17:58.551Z,1.10
2018-08-22T01:20:26.866Z,1.23
2018-08-22T01:22:55.124Z,1.17
2018-08-22T01:25:23.424Z,1.40
2018-08-22T01:27:51.643Z,1.20
2018-08-22T01:30:19.934Z,1.30
2018-08-22T01:32:48.221Z,1.47
2018-08-22T01:35:16.484Z,1.23
2018-08-22T01:37:44.743Z,1.10
2018-08-22T01:40:12.997Z,1.30
2018-08-22T01:42:41.199Z,1.50
2018-08-22T01:45:09.451Z,1.30
2018-08-22T01:47:37.699Z,1.30
2018-08-22T01:50:05.907Z,1.13
2018-08-22T01:52:34.125Z,1.20
2018-08-22T01:55:02.364Z,1.20
2018-08-22T01:57:30.619Z,1.27
2018-08-22T01:59:58.908Z,1.20
2018-08-22T02:02:27.124Z,1.00
2018-08-22T02:04:55.377Z,1.10
2018-08-22T02:07:23.622Z,0.97
2018-08-22T02:09:51.855Z,1.40
2018-08-22T02:12:20.099Z,1.20
2018-08-22T02:14:48.388Z,1.20
2018-08-22T02:17:16.655Z,1.30
2018-08-22T02:19:44.896Z,1.07
2018-08-22T02:22:13.153Z,1.10
2018-08-22T02:24:41.410Z,1.10
2018-08-22T02:27:09.733Z,1.23
2018-08-22T02:29:38.194Z,1.40
2018-08-22T02:32:06.803Z,1.30
2018-08-22T02:34:35.049Z,1.07
2018-08-22T02:37:03.300Z,1.20
2018-08-22T02:39:31.574Z,1.10
2018-08-22T02:41:59.855Z,1.00
2018-08-22T02:44:28.171Z,1.40
2018-08-22T02:46:56.408Z,1.20
2018-08-22T02:49:24.720Z,1.20
2018-08-22T02:51:52.940Z,1.40
2018-08-22T02:54:21.207Z,1.23
2018-08-22T02:56:49.560Z,1.10
2018-08-22T02:59:18.519Z,1.20
2018-08-22T03:01:46.761Z,1.43
2018-08-22T03:04:15.017Z,1.23
2018-08-22T03:06:43.227Z,1.47
2018-08-22T03:09:12.498Z,1.30
2018-08-22T03:11:40.733Z,1.40
2018-08-22T03:14:09.028Z,1.20
2018-08-22T03:16:37.267Z,1.20
2018-08-22T03:19:05.616Z,1.10
2018-08-22T03:21:33.840Z,1.30
2018-08-22T03:24:02.118Z,1.23
2018-08-22T03:26:30.384Z,1.33
2018-08-22T03:28:58.667Z,1.50
2018-08-22T03:31:26.956Z,1.57
2018-08-22T03:33:55.252Z,1.50
2018-08-22T03:36:23.505Z,1.17
2018-08-22T03:38:51.732Z,1.10
2018-08-22T03:41:20.081Z,1.27
2018-08-22T03:43:48.353Z,1.27
2018-08-22T03:46:16.582Z,1.13
2018-08-22T03:48:44.896Z,1.30
2018-08-22T03:51:13.179Z,1.43
2018-08-22T03:53:41.435Z,1.27
2018-08-22T03:56:09.676Z,1.17
2018-08-22T03:58:37.911Z,1.10
2018-08-22T04:01:06.189Z,1.20
2018-08-22T04:03:34.476Z,1.13
2018-08-22T04:06:02.728Z,1.40
2018-08-22T04:08:31.000Z,1.17
2018-08-22T04:10:59.222Z,1.53
2018-08-22T04:13:27.467Z,1.30
2018-08-22T04:15:55.774Z,1.07
2018-08-22T04:18:24.099Z,1.40
2018-08-22T04:20:52.348Z,2.07
2018-08-22T04:23:20.637Z,1.30
2018-08-22T04:25:48.887Z,1.50
2018-08-22T04:28:17.140Z,1.40
2018-08-22T04:30:45.364Z,1.40
2018-08-22T04:33:13.691Z,1.67
2018-08-22T04:35:42.017Z,1.30
2018-08-22T04:38:10.264Z,1.67
2018-08-22T04:40:38.510Z,1.33
2018-08-22T04:43:06.825Z,1.50
2018-08-22T04:45:35.047Z,1.47
2018-08-22T04:48:03.321Z,1.30
2018-08-22T04:50:31.568Z,1.20
2018-08-22T04:52:59.795Z,1.77
2018-08-22T04:55:28.088Z,1.47
2018-08-22T04:57:56.317Z,1.60
2018-08-22T05:00:24.561Z,1.30
2018-08-22T05:02:52.841Z,1.77
2018-08-22T05:05:21.144Z,1.83
2018-08-22T05:07:49.379Z,1.83
2018-08-22T05:10:17.652Z,1.63
2018-08-22T05:12:45.884Z,1.27
2018-08-22T05:15:14.140Z,1.43
2018-08-22T05:17:42.383Z,1.60
2018-08-22T05:20:10.644Z,1.57
2018-08-22T05:22:38.905Z,1.30
2018-08-22T05:25:07.180Z,1.30
2018-08-22T05:27:35.644Z,1.50
2018-08-22T05:30:04.012Z,1.20
2018-08-22T05:32:32.311Z,1.47
2018-08-22T05:35:00.575Z,1.40
2018-08-22T05:37:28.828Z,1.40
2018-08-22T05:39:57.083Z,1.70
2018-08-22T05:42:25.316Z,1.53
2018-08-22T05:44:53.553Z,1.70
2018-08-22T05:47:21.840Z,1.20
2018-08-22T05:49:50.135Z,1.50
2018-08-22T05:52:18.492Z,1.10
2018-08-22T05:54:46.692Z,1.20
2018-08-22T05:57:14.923Z,1.30
2018-08-22T05:59:43.411Z,1.60
2018-08-22T06:02:11.703Z,1.40
2018-08-22T06:04:39.973Z,1.43
2018-08-22T06:07:08.267Z,1.73
2018-08-22T06:09:36.542Z,1.60
2018-08-22T06:12:04.844Z,1.60
2018-08-22T06:14:33.084Z,1.70
2018-08-22T06:17:01.341Z,1.87
2018-08-22T06:19:29.628Z,1.50
2018-08-22T06:21:57.845Z,1.40
2018-08-22T06:24:26.122Z,1.73
2018-08-22T06:26:54.399Z,1.60
2018-08-22T06:29:24.130Z,1.40
2018-08-22T06:31:52.383Z,1.80
2018-08-22T06:34:20.602Z,2.10
2018-08-22T06:36:48.971Z,1.77
2018-08-22T06:39:17.238Z,1.93
2018-08-22T06:41:45.564Z,1.87
2018-08-22T06:44:13.837Z,1.67
2018-08-22T06:46:42.045Z,1.97
2018-08-22T06:49:10.284Z,1.63
2018-08-22T06:51:38.542Z,1.60
2018-08-22T06:54:06.850Z,1.57
2018-08-22T06:56:35.100Z,1.90
2018-08-22T06:59:03.352Z,2.00
2018-08-22T07:01:31.572Z,2.53
2018-08-22T07:03:59.817Z,2.17
2018-08-22T07:06:28.080Z,2.20
2018-08-22T07:08:56.320Z,2.20
2018-08-22T07:11:24.543Z,2.13
2018-08-22T07:13:52.838Z,2.13
2018-08-22T07:16:21.060Z,1.93
2018-08-22T07:18:49.280Z,2.13
2018-08-22T07:21:17.591Z,2.17
2018-08-22T07:23:45.847Z,1.83
2018-08-22T07:26:14.183Z,2.20
2018-08-22T07:28:42.464Z,2.20
2018-08-22T07:31:10.700Z,1.97
2018-08-22T07:33:38.904Z,2.37
2018-08-22T07:36:07.234Z,2.30
2018-08-22T07:38:35.529Z,1.77
2018-08-22T07:41:03.777Z,2.40
2018-08-22T07:43:32.020Z,1.90
2018-08-22T07:46:00.284Z,2.40
2018-08-22T07:48:28.604Z,2.60
2018-08-22T07:50:56.833Z,2.03
2018-08-22T07:53:25.094Z,1.80
2018-08-22T07:55:53.304Z,2.07
2018-08-22T07:58:21.571Z,2.20
2018-08-22T08:00:49.907Z,2.37
2018-08-22T08:03:18.139Z,1.57
2018-08-22T08:05:46.400Z,2.37
2018-08-22T08:08:14.672Z,1.80
2018-08-22T08:10:42.934Z,2.00
2018-08-22T08:13:16.639Z,2.47
2018-08-22T08:15:44.828Z,2.47
2018-08-22T08:18:13.068Z,2.00
2018-08-22T08:20:41.446Z,2.30
2018-08-22T08:23:09.699Z,3.17
2018-08-22T08:25:37.963Z,2.30
2018-08-22T08:28:06.292Z,2.23
2018-08-22T08:30:34.590Z,1.97
2018-08-22T08:33:02.789Z,1.97
2018-08-22T08:35:31.069Z,1.83
2018-08-22T08:37:59.341Z,2.07
2018-08-22T08:40:27.600Z,2.17
2018-08-22T08:42:55.845Z,2.00
2018-08-22T08:45:24.095Z,2.60
2018-08-22T08:47:52.370Z,1.70
2018-08-22T08:50:20.665Z,2.10
2018-08-22T08:52:48.891Z,2.37
2018-08-22T08:55:17.103Z,2.13
2018-08-22T08:57:45.430Z,2.17
2018-08-22T09:00:13.696Z,1.90
2018-08-22T09:02:41.911Z,2.17
2018-08-22T09:05:10.197Z,2.10
2018-08-22T09:07:38.440Z,2.10
2018-08-22T09:10:06.774Z,2.20
2018-08-22T09:12:36.840Z,2.10
2018-08-22T09:15:06.094Z,2.20
2018-08-22T09:17:34.366Z,2.40
2018-08-22T09:20:02.784Z,2.10
2018-08-22T09:22:37.573Z,2.70
2018-08-22T09:25:05.922Z,2.07
2018-08-22T09:27:34.177Z,2.23
2018-08-22T09:30:02.473Z,2.33
2018-08-22T09:32:30.773Z,2.07
2018-08-22T09:34:59.018Z,1.90
2018-08-22T09:37:27.271Z,2.20
2018-08-22T09:39:55.508Z,2.47
2018-08-22T09:42:23.729Z,2.60
2018-08-22T09:44:52.010Z,2.33
2018-08-22T09:47:20.269Z,2.30
2018-08-22T09:49:48.703Z,2.10
2018-08-22T09:52:17.015Z,2.57
2018-08-22T09:54:58.769Z,2.07
2018-08-22T09:57:27.870Z,2.00
2018-08-22T09:59:56.571Z,2.53
2018-08-22T10:02:24.788Z,2.73
2018-08-22T10:04:53.417Z,2.50
2018-08-22T10:07:21.727Z,2.13
2018-08-22T10:09:49.981Z,2.40
2018-08-22T10:12:18.268Z,2.57
2018-08-22T10:14:46.774Z,2.67
2018-08-22T10:17:15.067Z,2.40
2018-08-22T10:19:43.376Z,2.67
2018-08-22T10:22:11.792Z,2.47
2018-08-22T10:24:40.034Z,2.23
2018-08-22T10:27:08.338Z,2.50
2018-08-22T10:29:36.846Z,2.70
2018-08-22T10:32:05.150Z,2.60
2018-08-22T10:34:33.774Z,2.50
2018-08-22T10:37:02.053Z,2.20
2018-08-22T10:39:30.332Z,2.60
2018-08-22T10:41:58.606Z,2.53
2018-08-22T10:44:26.906Z,2.57
2018-08-22T10:46:55.100Z,2.10
2018-08-22T10:49:23.397Z,2.23
2018-08-22T10:51:51.682Z,2.23
2018-08-22T10:54:19.992Z,2.30
2018-08-22T10:56:48.251Z,2.47
2018-08-22T10:59:17.145Z,2.47
2018-08-22T11:01:45.407Z,2.77
2018-08-22T11:04:13.684Z,2.70
2018-08-22T11:06:41.986Z,2.77
2018-08-22T11:09:11.139Z,2.23
2018-08-22T11:11:39.405Z,2.23
2018-08-22T11:14:07.948Z,2.50
2018-08-22T11:16:36.292Z,2.43
2018-08-22T11:19:04.526Z,2.20
2018-08-22T11:21:43.929Z,2.30
2018-08-22T11:24:23.616Z,2.20
2018-08-22T11:27:03.361Z,2.80
2018-08-22T11:29:43.194Z,1.97
2018-08-22T11:32:22.846Z,2.23
2018-08-22T11:34:51.906Z,2.60
2018-08-22T11:37:20.265Z,2.70
2018-08-22T11:39:49.804Z,3.10
2018-08-22T11:42:18.146Z,2.70
2018-08-22T11:44:46.443Z,2.80
2018-08-22T11:47:21.172Z,2.63
2018-08-22T11:49:49.392Z,2.63
2018-08-22T11:52:17.639Z,3.00
2018-08-22T11:54:45.896Z,2.50
2018-08-22T11:57:14.108Z,2.63
2018-08-22T11:59:42.407Z,2.70
2018-08-22T12:02:10.620Z,3.03
2018-08-22T12:04:38.797Z,3.03
2018-08-22T12:07:07.060Z,2.70
2018-08-22T12:09:35.284Z,3.00
2018-08-22T12:12:03.465Z,3.03
2018-08-22T12:14:31.696Z,2.87
2018-08-22T12:16:59.879Z,2.70
2018-08-22T12:19:28.051Z,3.00
2018-08-22T12:21:56.240Z,3.40
2018-08-22T12:24:24.401Z,3.23
2018-08-22T12:26:52.612Z,2.90
2018-08-22T12:29:21.779Z,3.73
2018-08-22T12:31:50.076Z,3.50
2018-08-22T12:34:18.304Z,3.10
2018-08-22T12:36:46.489Z,2.93
2018-08-22T12:39:14.675Z,2.73
2018-08-22T12:41:42.924Z,3.40
2018-08-22T12:44:11.194Z,3.70
2018-08-22T12:46:39.434Z,3.73
2018-08-22T12:49:07.645Z,3.07
2018-08-22T12:51:35.884Z,3.47
2018-08-22T12:54:04.135Z,3.40
2018-08-22T12:56:32.371Z,3.43
2018-08-22T12:59:00.571Z,3.17
2018-08-22T13:01:28.731Z,3.20
2018-08-22T13:03:56.948Z,3.60
2018-08-22T13:06:25.168Z,4.33
2018-08-22T13:08:53.408Z,4.17
2018-08-22T13:11:21.588Z,3.50
2018-08-22T13:13:49.790Z,3.80
2018-08-22T13:16:18.015Z,3.83
2018-08-22T13:18:52.940Z,3.70
2018-08-22T13:21:21.157Z,3.70
2018-08-22T13:23:49.344Z,3.57
2018-08-22T13:26:17.513Z,4.10
2018-08-22T13:28:45.728Z,3.50
2018-08-22T13:31:13.953Z,3.47
2018-08-22T13:33:42.194Z,4.20
2018-08-22T13:36:10.542Z,3.63
2018-08-22T13:38:38.694Z,4.30
2018-08-22T13:41:06.905Z,4.53
2018-08-22T13:43:35.096Z,3.60
2018-08-22T13:46:03.284Z,3.47
2018-08-22T13:48:31.491Z,3.17
2018-08-22T13:50:59.706Z,3.80
2018-08-22T13:53:27.949Z,3.17
2018-08-22T13:55:56.212Z,3.63
2018-08-22T13:58:24.412Z,3.37
2018-08-22T14:00:52.573Z,3.00
2018-08-22T14:03:20.825Z,3.60
2018-08-22T14:05:49.022Z,3.60
2018-08-22T14:08:17.208Z,3.87
2018-08-22T14:10:45.437Z,3.73
2018-08-22T14:13:13.647Z,3.10
2018-08-22T14:15:41.862Z,4.20
2018-08-22T14:18:10.048Z,3.93
2018-08-22T14:20:38.227Z,3.40
2018-08-22T14:23:06.752Z,3.60
2018-08-22T14:25:34.906Z,3.97
2018-08-22T14:28:03.164Z,3.53
2018-08-22T14:30:31.360Z,3.77
2018-08-22T14:32:59.647Z,3.23
2018-08-22T14:35:27.886Z,4.23
2018-08-22T14:37:56.040Z,3.30
2018-08-22T14:40:24.270Z,3.87
2018-08-22T14:42:52.490Z,3.20
2018-08-22T14:45:20.733Z,3.10
2018-08-22T14:47:48.971Z,3.20
2018-08-22T14:50:18.036Z,3.10
2018-08-22T14:52:46.215Z,2.60
2018-08-22T14:55:14.397Z,3.07
2018-08-22T14:57:42.610Z,3.50
2018-08-22T15:00:11.112Z,3.03
2018-08-22T15:02:39.416Z,3.10
2018-08-22T15:05:07.609Z,3.67
2018-08-22T15:07:36.359Z,2.70
2018-08-22T15:10:04.564Z,2.93
2018-08-22T15:12:32.802Z,3.00
2018-08-22T15:15:00.991Z,3.17
2018-08-22T15:17:29.199Z,3.50
2018-08-22T15:19:57.431Z,3.37
2018-08-22T15:22:25.615Z,3.03
2018-08-22T15:24:53.825Z,3.80
2018-08-22T15:27:22.075Z,3.20
2018-08-22T15:29:50.721Z,3.10
2018-08-22T15:32:18.897Z,3.67
2018-08-22T15:34:49.768Z,2.80
2018-08-22T15:37:17.948Z,2.77
2018-08-22T15:39:46.136Z,3.13
2018-08-22T15:42:14.313Z,3.53
2018-08-22T15:44:42.518Z,2.97
2018-08-22T15:47:11.317Z,3.70
2018-08-22T15:49:39.529Z,3.20
2018-08-22T15:52:07.734Z,3.10
2018-08-22T15:54:36.023Z,2.70
2018-08-22T15:57:04.317Z,3.27
2018-08-22T15:59:33.108Z,3.70
2018-08-22T16:02:01.271Z,3.40
2018-08-22T16:04:29.480Z,2.77
2018-08-22T16:07:03.293Z,3.57
2018-08-22T16:09:32.584Z,2.77
2018-08-22T16:12:01.073Z,3.30
2018-08-22T16:14:29.339Z,3.17
2018-08-22T16:16:57.858Z,3.30
2018-08-22T16:19:26.032Z,3.10
2018-08-22T16:21:54.198Z,2.73
2018-08-22T16:24:26.976Z,2.80
2018-08-22T16:26:55.176Z,2.93
2018-08-22T16:29:24.637Z,3.80
2018-08-22T16:31:53.901Z,3.70
2018-08-22T16:34:22.123Z,3.67
2018-08-22T16:36:50.321Z,3.70
2018-08-22T16:39:32.800Z,3.90
2018-08-22T16:42:01.016Z,3.80
2018-08-22T16:44:29.219Z,3.40
2018-08-22T16:46:57.397Z,3.50
2018-08-22T16:49:25.607Z,3.80
2018-08-22T16:51:53.824Z,4.23
2018-08-22T16:54:21.997Z,4.20
2018-08-22T16:56:50.196Z,3.50
2018-08-22T16:59:20.746Z,3.83
2018-08-22T17:01:50.610Z,3.63
2018-08-22T17:04:18.783Z,3.87
2018-08-22T17:06:47.320Z,4.00
2018-08-22T17:09:15.524Z,3.80
2018-08-22T17:11:43.701Z,3.30
2018-08-22T17:14:11.983Z,3.87
2018-08-22T17:16:40.192Z,3.97
2018-08-22T17:19:08.416Z,3.50
2018-08-22T17:21:36.584Z,3.60
2018-08-22T17:24:04.794Z,4.07
2018-08-22T17:26:32.993Z,3.53
2018-08-22T17:29:10.997Z,3.60
2018-08-22T17:31:39.197Z,3.97
2018-08-22T17:34:07.417Z,4.17
2018-08-22T17:36:35.614Z,3.50
2018-08-22T17:39:04.112Z,4.00
2018-08-22T17:41:32.338Z,3.67
2018-08-22T17:44:10.468Z,3.90
2018-08-22T17:46:41.195Z,3.40
2018-08-22T17:49:09.395Z,3.57
2018-08-22T17:52:06.768Z,3.87
2018-08-22T17:54:35.080Z,3.80
2018-08-22T17:57:13.674Z,3.43
2018-08-22T17:59:42.869Z,3.70
2018-08-22T18:02:11.072Z,3.80
2018-08-22T18:05:01.946Z,4.03
2018-08-22T18:07:30.314Z,3.80
2018-08-22T18:09:58.574Z,3.87
2018-08-22T18:12:27.614Z,3.70
2018-08-22T18:14:58.382Z,3.80
2018-08-22T18:17:26.616Z,3.53
2018-08-22T18:19:54.822Z,3.50
2018-08-22T18:22:23.511Z,3.50
2018-08-22T18:24:56.017Z,3.70
2018-08-22T18:27:24.617Z,3.73
2018-08-22T18:29:52.818Z,3.50
2018-08-22T18:32:21.015Z,4.03
2018-08-22T18:34:59.247Z,3.30
2018-08-22T18:37:28.762Z,3.63
2018-08-22T18:40:16.472Z,3.90
2018-08-22T18:42:48.007Z,3.73
2018-08-22T18:45:16.297Z,3.77
2018-08-22T18:47:44.440Z,3.40
2018-08-22T18:50:12.717Z,3.10
2018-08-22T18:52:40.909Z,3.50
2018-08-22T18:55:09.101Z,4.50
2018-08-22T18:57:37.281Z,3.47
2018-08-22T19:00:07.425Z,3.83
2018-08-22T19:02:35.618Z,3.97
2018-08-22T19:05:20.565Z,3.97
2018-08-22T19:08:09.231Z,4.00
2018-08-22T19:10:38.846Z,4.10
2018-08-22T19:13:12.556Z,4.33
2018-08-22T19:15:40.703Z,3.77
2018-08-22T19:18:09.839Z,4.43
2018-08-22T19:20:38.383Z,4.10
2018-08-22T19:23:06.584Z,4.00
2018-08-22T19:25:34.812Z,3.93
2018-08-22T19:28:03.300Z,4.10
2018-08-22T19:30:33.993Z,4.27
2018-08-22T19:33:02.197Z,3.73
2018-08-22T19:35:30.415Z,4.60
2018-08-22T19:39:32.929Z,3.37
2018-08-22T19:42:01.170Z,4.10
2018-08-22T19:44:29.414Z,3.77
2018-08-22T19:46:57.627Z,4.60
2018-08-22T19:49:25.852Z,3.73
2018-08-22T19:51:54.027Z,4.57
2018-08-22T19:54:22.289Z,4.03
2018-08-22T19:56:50.479Z,4.03
2018-08-22T19:59:19.005Z,4.63
2018-08-22T20:01:47.219Z,4.30
2018-08-22T20:04:15.430Z,4.00
2018-08-22T20:06:43.589Z,4.87
2018-08-22T20:09:11.913Z,4.47
2018-08-22T20:11:40.132Z,4.00
2018-08-22T20:14:08.405Z,3.90
2018-08-22T20:16:36.599Z,4.60
2018-08-22T20:19:05.333Z,4.17
2018-08-22T20:21:34.754Z,3.87
2018-08-22T20:24:04.145Z,3.70
2018-08-22T20:26:32.793Z,3.80
2018-08-22T20:29:02.258Z,4.40
2018-08-22T20:31:30.552Z,4.40
2018-08-22T20:34:05.953Z,3.90
2018-08-22T20:36:34.166Z,4.50
2018-08-22T20:39:07.371Z,4.23
2018-08-22T20:41:35.996Z,4.50
2018-08-22T20:44:07.528Z,4.13
2018-08-22T20:46:35.744Z,4.27
2018-08-22T20:49:03.934Z,4.23
2018-08-22T20:51:32.779Z,4.73
2018-08-22T20:54:06.307Z,4.33
2018-08-22T20:56:34.632Z,4.33
2018-08-22T20:59:02.869Z,4.60
2018-08-22T21:01:31.054Z,4.57
2018-08-22T21:03:59.251Z,4.33
2018-08-22T21:06:27.471Z,4.30
2018-08-22T21:08:55.667Z,4.40
2018-08-22T21:11:23.839Z,4.53
2018-08-22T21:13:52.008Z,4.40
2018-08-22T21:16:20.187Z,4.50
2018-08-22T21:18:48.339Z,4.80
2018-08-22T21:21:24.562Z,5.00
2018-08-22T21:23:52.810Z,4.67
2018-08-22T21:26:35.070Z,4.83
2018-08-22T21:29:03.503Z,4.50
2018-08-22T21:31:31.804Z,4.77
2018-08-22T21:34:06.451Z,4.53
2018-08-22T21:36:35.532Z,4.60
2018-08-22T21:39:06.999Z,4.23
2018-08-22T21:41:35.281Z,5.10
2018-08-22T21:44:03.512Z,4.80
2018-08-22T21:46:31.669Z,4.07
2018-08-22T21:49:04.175Z,4.07
2018-08-22T21:51:34.136Z,4.20
2018-08-22T21:54:02.352Z,4.50
2018-08-22T21:56:30.527Z,4.50
2018-08-22T21:58:58.693Z,4.50
2018-08-22T22:01:31.189Z,4.43
2018-08-22T22:03:59.376Z,4.50
2018-08-22T22:06:27.636Z,4.07
2018-08-22T22:08:57.002Z,4.97
2018-08-22T22:11:25.280Z,4.97
2018-08-22T22:13:58.554Z,6.17
2018-08-22T22:16:31.096Z,5.47
2018-08-22T22:18:59.325Z,5.47
2018-08-22T22:21:27.511Z,6.20
2018-08-22T22:23:55.692Z,5.97
2018-08-22T22:26:24.031Z,5.60
2018-08-22T22:28:53.437Z,5.03
2018-08-22T22:31:21.636Z,5.57
2018-08-22T22:34:07.604Z,5.67
2018-08-22T22:36:35.834Z,5.23
2018-08-22T22:39:05.644Z,5.20
2018-08-22T22:41:33.799Z,5.20
2018-08-22T22:44:02.000Z,5.30
2018-08-22T22:46:30.182Z,5.70
2018-08-22T22:48:58.397Z,6.43
2018-08-22T22:51:26.612Z,5.63
2018-08-22T22:53:54.861Z,5.10
2018-08-22T22:56:23.065Z,6.13
2018-08-22T22:58:51.272Z,6.07
2018-08-22T23:01:19.445Z,5.73
2018-08-22T23:03:47.680Z,5.80
2018-08-22T23:06:15.870Z,5.60
2018-08-22T23:08:45.020Z,5.87
2018-08-22T23:11:13.248Z,6.03
2018-08-22T23:13:41.473Z,6.27
2018-08-22T23:16:09.672Z,6.47
2018-08-22T23:18:37.956Z,6.70
2018-08-22T23:21:06.128Z,7.43
2018-08-22T23:23:36.283Z,7.23
2018-08-22T23:26:14.037Z,6.83
2018-08-22T23:28:43.760Z,7.53
2018-08-22T23:31:14.931Z,7.23
2018-08-22T23:33:43.123Z,7.43
2018-08-22T23:36:11.328Z,7.73
2018-08-22T23:38:39.511Z,6.93
2018-08-22T23:41:07.731Z,7.43
2018-08-22T23:43:41.403Z,6.50
2018-08-22T23:46:10.620Z,6.77
2018-08-22T23:48:39.116Z,7.63
2018-08-22T23:51:09.423Z,8.33
2018-08-22T23:53:41.609Z,8.70
2018-08-22T23:56:18.155Z,8.23
2018-08-22T23:58:47.176Z,7.43
